Orbital elements of COSMOS 2248
| Launched | 10 May 1993 |
| Flight ended | – |
| Launch site | Plesetsk Missile and Space Complex, Russia |
| Owner | Commonwealth of Independent States (former USSR) |
| NORAD ID | 22649 |
| Date fetched |
Epoch osculation |
Inc. [°] |
Ecc. | RA asc node [hr] |
Arg Peri. [°] |
Mean anom [°] |
Mean motion [rev/day] |
Abs. mag |
| Date fetched |
Epoch osculation |
Inc. [°] |
Ecc. | RA asc node [hr] |
Arg Peri. [°] |
Mean anom [°] |
Mean motion [rev/day] |
Abs. mag |
| 2026 May 05 17:57 | 2026 May 05 08:13:43 | 82.5795 | 0.00098 | 22.5817 | 34.5603 | 325.6126 | 12.63521 | 8.243 |
| 2026 May 04 17:57 | 2026 Apr 30 14:12:16 | 82.5803 | 0.00100 | 22.7842 | 44.6088 | 325.6126 | 12.63521 | 8.243 |
| 2026 May 03 17:57 | 2026 Apr 30 14:12:16 | 82.5803 | 0.00100 | 22.7842 | 44.6088 | 325.6126 | 12.63521 | 8.243 |
| 2026 May 02 17:57 | 2026 Apr 30 14:12:16 | 82.5803 | 0.00100 | 22.7842 | 44.6088 | 325.6126 | 12.63521 | 8.243 |
| 2026 May 01 17:56 | 2026 Apr 30 14:12:16 | 82.5803 | 0.00100 | 22.7842 | 44.6088 | 325.6126 | 12.63521 | 8.243 |
| 2026 Apr 30 17:56 | 2026 Apr 30 14:12:16 | 82.5803 | 0.00100 | 22.7842 | 44.6088 | 325.6126 | 12.63521 | 8.243 |
| 2026 Apr 29 17:57 | 2026 Apr 24 02:22:18 | 82.5814 | 0.00101 | 23.0611 | 58.0297 | 325.6126 | 12.63521 | 8.243 |
| 2026 Apr 28 17:56 | 2026 Apr 24 02:22:18 | 82.5814 | 0.00101 | 23.0611 | 58.0297 | 325.6126 | 12.63521 | 8.243 |
| 2026 Apr 27 17:58 | 2026 Apr 24 02:22:18 | 82.5814 | 0.00101 | 23.0611 | 58.0297 | 325.6126 | 12.63521 | 8.243 |
| 2026 Apr 26 17:58 | 2026 Apr 24 02:22:18 | 82.5814 | 0.00101 | 23.0611 | 58.0297 | 325.6126 | 12.63521 | 8.243 |
| 2026 Apr 25 17:58 | 2026 Apr 24 02:22:18 | 82.5814 | 0.00101 | 23.0611 | 58.0297 | 325.6126 | 12.63521 | 8.243 |
| 2026 Apr 24 17:59 | 2026 Apr 24 02:22:18 | 82.5814 | 0.00101 | 23.0611 | 58.0297 | 325.6126 | 12.63521 | 8.243 |
| 2026 Apr 23 17:57 | 2026 Apr 19 08:20:51 | 82.5821 | 0.00102 | 23.2636 | 67.5372 | 325.6126 | 12.63521 | 8.243 |
| 2026 Apr 22 17:57 | 2026 Apr 19 08:20:51 | 82.5821 | 0.00102 | 23.2636 | 67.5372 | 325.6126 | 12.63521 | 8.243 |
| 2026 Apr 21 17:57 | 2026 Apr 19 08:20:51 | 82.5821 | 0.00102 | 23.2636 | 67.5372 | 325.6126 | 12.63521 | 8.243 |
| 2026 Apr 20 17:57 | 2026 Apr 19 08:20:51 | 82.5821 | 0.00102 | 23.2636 | 67.5372 | 325.6126 | 12.63521 | 8.243 |
| 2026 Apr 19 17:58 | 2026 Apr 19 08:20:51 | 82.5821 | 0.00102 | 23.2636 | 67.5372 | 325.6126 | 12.63521 | 8.243 |
| 2026 Apr 18 17:56 | 2026 Apr 13 02:12:56 | 82.5834 | 0.00102 | 23.5302 | 80.1460 | 325.6126 | 12.63521 | 8.243 |
| 2026 Apr 16 17:57 | 2026 Apr 13 02:12:56 | 82.5834 | 0.00102 | 23.5302 | 80.1460 | 325.6126 | 12.63521 | 8.243 |
| 2026 Apr 14 17:57 | 2026 Apr 13 02:12:56 | 82.5834 | 0.00102 | 23.5302 | 80.1460 | 325.6126 | 12.63521 | 8.243 |
| 2026 Apr 13 17:57 | 2026 Apr 13 02:12:56 | 82.5834 | 0.00102 | 23.5302 | 80.1460 | 325.6126 | 12.63521 | 8.243 |
| 2026 Apr 12 17:57 | 2026 Apr 08 10:05:31 | 82.5838 | 0.00102 | 23.7293 | 89.6457 | 325.6126 | 12.63521 | 8.243 |
| 2026 Apr 11 17:57 | 2026 Apr 08 10:05:31 | 82.5838 | 0.00102 | 23.7293 | 89.6457 | 325.6126 | 12.63521 | 8.243 |
| 2026 Apr 10 17:58 | 2026 Apr 08 10:05:31 | 82.5838 | 0.00102 | 23.7293 | 89.6457 | 325.6126 | 12.63521 | 8.243 |
| 2026 Apr 09 18:01 | 2026 Apr 08 10:05:31 | 82.5838 | 0.00102 | 23.7293 | 89.6457 | 325.6126 | 12.63521 | 8.243 |
| 2026 Apr 08 17:57 | 2026 Apr 08 10:05:31 | 82.5838 | 0.00102 | 23.7293 | 89.6457 | 325.6126 | 12.63521 | 8.243 |